Metar Aviation Weather Data KVNC

81°F Temp
77°F Dewpoint
% Humidity
Temperature
5 MPH
8 KM/H
4 KTS
130°
South East

Wind Speed
Partly Cloudy
Conditions
Pressure 1018.92 (hPa) - 30.09 (in)
Visibility 10.0 (mi) - 16 (km)

Current Conditions
KVNC
Metar :KVNC 180155Z AUTO 13004KT 10SM FEW027 SCT032 SCT039 27/25 A3009 RMK AO2
Sat 17th August 21:55 pm

  Metar Aviation API Data Provided by https://www.checkwx.com/ PHP scripts by weather34.com ©2019